Time;durP1;ratioP1;P1;durP2;ratioP2;P2;SDS_P1;SDS_P2;PMS_P1;PMS_P2;Temp;Humidity;BMP_temperature;BMP_pressure;BME280_temperature;BME280_humidity;BME280_pressure;Samples;Min_cycle;Max_cycle;Signal;HPM_P1;HPM_P2
2023/01/13 00:01:21;;;;;;;11.25;3.03;;;9.00;99.90;;;;;;5034306;28;20128;-77
2023/01/13 00:03:47;;;;;;;10.20;2.53;;;8.90;99.90;;;;;;5034294;28;20048;-76
2023/01/13 00:06:16;;;;;;;16.48;2.85;;;8.80;99.90;;;;;;5034331;28;20108;-77
2023/01/13 00:08:42;;;;;;;15.57;3.17;;;8.70;99.90;;;;;;5034093;28;20543;-77
2023/01/13 00:11:08;;;;;;;16.80;3.03;;;8.70;99.90;;;;;;5033913;28;20038;-76
2023/01/13 00:13:35;;;;;;;16.58;3.05;;;8.70;99.90;;;;;;5034069;28;20037;-78
2023/01/13 00:16:03;;;;;;;13.63;3.72;;;8.70;99.90;;;;;;5034064;28;20044;-76
2023/01/13 00:18:29;;;;;;;19.05;3.60;;;8.60;99.90;;;;;;5033915;28;20508;-77
2023/01/13 00:21:27;;;;;;;25.77;4.27;;;8.50;99.90;;;;;;5034259;28;20108;-77
2023/01/13 00:23:53;;;;;;;16.92;3.40;;;8.50;99.90;;;;;;4990358;28;20053;-77
2023/01/13 00:26:25;;;;;;;29.60;4.00;;;8.40;99.90;;;;;;5034006;28;20048;-77
2023/01/13 00:28:58;;;;;;;19.20;3.55;;;8.40;99.90;;;;;;5034212;28;20049;-77
2023/01/13 00:31:24;;;;;;;23.02;4.03;;;8.30;99.90;;;;;;5033943;28;20099;-77
2023/01/13 00:33:50;;;;;;;19.67;3.92;;;8.30;99.90;;;;;;5033739;28;20037;-77
2023/01/13 00:36:17;;;;;;;17.90;3.70;;;8.30;99.90;;;;;;5033667;28;20053;-78
2023/01/13 00:38:44;;;;;;;23.33;4.47;;;8.20;99.90;;;;;;5033574;28;20505;-77
2023/01/13 00:41:11;;;;;;;23.02;3.78;;;8.10;99.90;;;;;;5033495;28;20041;-78
2023/01/13 00:43:37;;;;;;;19.52;5.57;;;8.00;99.90;;;;;;5033757;28;20379;-77
2023/01/13 00:46:05;;;;;;;13.90;2.97;;;7.90;99.90;;;;;;5015871;28;20044;-76
2023/01/13 00:48:31;;;;;;;17.27;4.18;;;7.90;99.90;;;;;;5033668;28;20117;-77
2023/01/13 00:51:03;;;;;;;16.60;3.83;;;7.80;99.90;;;;;;5033701;28;20037;-76
2023/01/13 00:53:32;;;;;;;23.58;4.15;;;7.80;99.90;;;;;;5033352;28;20073;-77
2023/01/13 00:56:03;;;;;;;16.73;3.30;;;7.80;99.90;;;;;;5035434;28;20355;-76
2023/01/13 00:58:30;;;;;;;15.38;3.00;;;7.70;99.90;;;;;;5040255;28;20115;-77
2023/01/13 01:01:04;;;;;;;13.13;3.17;;;7.70;99.90;;;;;;5040159;28;20041;-77
2023/01/13 01:03:30;;;;;;;20.48;3.45;;;7.70;99.90;;;;;;5040182;28;20385;-77
2023/01/13 01:06:02;;;;;;;21.80;3.97;;;7.70;99.90;;;;;;5040051;28;20044;-76
2023/01/13 01:08:27;;;;;;;18.05;3.65;;;7.80;99.90;;;;;;5040184;28;20092;-77
2023/01/13 01:11:12;;;;;;;21.10;3.65;;;7.60;99.90;;;;;;5040111;28;20037;-76
2023/01/13 01:13:38;;;;;;;22.27;3.47;;;7.60;99.90;;;;;;5039917;28;20544;-77
2023/01/13 01:16:05;;;;;;;17.20;3.53;;;7.60;99.90;;;;;;5040024;28;20041;-77
2023/01/13 01:18:33;;;;;;;16.95;3.50;;;7.60;99.90;;;;;;5039899;28;20044;-78
2023/01/13 01:20:59;;;;;;;15.25;3.40;;;7.60;99.90;;;;;;5039871;28;20478;-77
2023/01/13 01:23:30;;;;;;;21.02;3.55;;;7.60;99.90;;;;;;5040017;28;20037;-77
2023/01/13 01:26:05;;;;;;;18.60;4.25;;;7.60;99.90;;;;;;5039703;28;20049;-76
2023/01/13 01:28:32;;;;;;;29.33;4.82;;;7.60;99.90;;;;;;5021883;28;20056;-76
2023/01/13 01:30:58;;;;;;;19.83;3.70;;;7.60;99.90;;;;;;5039937;28;20068;-77
2023/01/13 01:33:27;;;;;;;22.27;4.03;;;7.70;99.90;;;;;;5039994;28;20042;-78
2023/01/13 01:35:55;;;;;;;14.45;3.70;;;7.70;99.90;;;;;;5039958;28;20330;-77
2023/01/13 01:38:22;;;;;;;24.98;3.90;;;7.70;99.90;;;;;;5039764;28;20049;-77
2023/01/13 01:40:48;;;;;;;22.17;4.90;;;7.70;99.90;;;;;;5040095;28;20083;-76
2023/01/13 01:45:59;;;;;;;16.85;3.35;;;7.80;99.90;;;;;;5039887;28;20088;-77
2023/01/13 01:48:29;;;;;;;18.85;3.70;;;7.80;99.90;;;;;;5039792;28;20092;-78
2023/01/13 01:50:54;;;;;;;17.60;4.43;;;7.90;99.90;;;;;;5022393;28;20045;-77
2023/01/13 01:53:25;;;;;;;19.23;3.97;;;7.90;99.90;;;;;;5039689;28;20068;-76
2023/01/13 01:55:50;;;;;;;25.17;4.00;;;7.90;99.90;;;;;;5039694;28;20068;-77
2023/01/13 01:58:31;;;;;;;23.23;4.00;;;7.90;99.90;;;;;;5039618;28;20038;-77
2023/01/13 02:00:58;;;;;;;26.25;4.10;;;7.80;99.90;;;;;;5039455;28;20044;-77
2023/01/13 02:03:24;;;;;;;19.38;3.85;;;7.80;99.90;;;;;;5039706;28;20037;-77
2023/01/13 02:05:50;;;;;;;23.83;5.67;;;7.80;99.90;;;;;;5021966;28;20052;-76
2023/01/13 02:08:16;;;;;;;23.85;3.90;;;7.70;99.90;;;;;;5036710;28;20628;-77
2023/01/13 02:10:47;;;;;;;20.45;4.72;;;7.70;99.90;;;;;;5036457;28;20392;-76
2023/01/13 02:13:13;;;;;;;21.08;4.35;;;7.60;99.90;;;;;;5036342;28;20056;-77
2023/01/13 02:16:07;;;;;;;23.70;4.40;;;7.60;99.90;;;;;;5036382;28;20108;-76
2023/01/13 02:19:03;;;;;;;23.83;3.58;;;7.50;99.90;;;;;;5036135;28;20084;-77
2023/01/13 02:21:47;;;;;;;27.83;4.97;;;7.50;99.90;;;;;;5036202;28;20048;-76
2023/01/13 02:27:17;;;;;;;18.60;3.60;;;7.40;99.90;;;;;;5036162;28;20045;-77
2023/01/13 02:32:58;;;;;;;23.02;5.25;;;7.30;99.90;;;;;;5036031;28;20045;-76
2023/01/13 02:35:47;;;;;;;18.77;4.22;;;7.30;99.90;;;;;;5036045;28;20037;-77
2023/01/13 02:38:15;;;;;;;29.52;4.53;;;7.20;99.90;;;;;;5021909;28;20057;-77
2023/01/13 02:40:58;;;;;;;26.02;4.45;;;7.30;99.90;;;;;;5035906;28;20056;-76
2023/01/13 02:46:24;;;;;;;22.40;3.93;;;7.30;99.90;;;;;;5035524;28;20049;-77
2023/01/13 02:48:53;;;;;;;23.75;3.95;;;7.30;99.90;;;;;;5035696;28;20049;-76
2023/01/13 02:51:22;;;;;;;21.42;3.63;;;7.30;99.90;;;;;;5035575;28;20489;-76
2023/01/13 02:53:56;;;;;;;26.15;4.50;;;7.30;99.90;;;;;;5035596;28;20064;-76
2023/01/13 02:56:23;;;;;;;22.52;4.35;;;7.30;99.90;;;;;;5035702;28;20395;-76
2023/01/13 02:58:51;;;;;;;27.38;5.03;;;7.20;99.90;;;;;;5035493;28;20049;-77
2023/01/13 03:01:17;;;;;;;22.65;5.15;;;7.20;99.90;;;;;;5035254;28;20549;-77
2023/01/13 03:03:43;;;;;;;26.95;4.20;;;7.20;99.90;;;;;;5017875;28;20116;-77
2023/01/13 03:06:28;;;;;;;26.13;4.50;;;7.10;99.90;;;;;;5035461;28;20040;-77
2023/01/13 03:09:07;;;;;;;28.85;5.20;;;7.10;99.90;;;;;;5035441;28;20425;-77
2023/01/13 03:11:44;;;;;;;25.88;4.78;;;7.10;99.90;;;;;;5035172;28;20052;-76
2023/01/13 03:14:20;;;;;;;23.83;4.55;;;7.10;99.90;;;;;;5035318;28;20084;-76
2023/01/13 03:17:06;;;;;;;20.83;4.00;;;7.10;99.90;;;;;;5035239;28;20033;-76
2023/01/13 03:19:42;;;;;;;17.45;3.65;;;7.10;99.90;;;;;;5017369;28;20042;-76
2023/01/13 03:22:26;;;;;;;29.15;4.78;;;7.10;99.90;;;;;;5034988;28;20064;-76
2023/01/13 03:24:59;;;;;;;21.90;4.57;;;7.20;99.90;;;;;;5034988;28;20116;-76
2023/01/13 03:27:49;;;;;;;18.58;4.90;;;7.20;99.90;;;;;;5035022;28;20168;-77
2023/01/13 03:30:21;;;;;;;31.05;4.80;;;7.20;99.90;;;;;;5034883;28;20045;-76
2023/01/13 03:32:56;;;;;;;26.90;4.55;;;7.30;99.90;;;;;;5034927;28;20045;-76
2023/01/13 03:35:42;;;;;;;24.55;4.90;;;7.30;99.90;;;;;;5035356;28;20057;-78
2023/01/13 03:38:28;;;;;;;23.48;5.20;;;7.40;99.90;;;;;;5034848;28;20072;-77
2023/01/13 03:40:58;;;;;;;22.35;4.45;;;7.40;99.90;;;;;;5034868;28;20083;-77
2023/01/13 03:46:20;;;;;;;18.15;4.28;;;7.40;99.90;;;;;;5034846;28;20112;-78
2023/01/13 03:48:50;;;;;;;22.23;4.90;;;7.50;99.90;;;;;;5034361;28;20513;-77
2023/01/13 03:51:19;;;;;;;23.67;4.38;;;7.50;99.90;;;;;;5034408;28;20056;-77
2023/01/13 03:53:49;;;;;;;33.10;6.10;;;7.50;99.90;;;;;;5034157;28;20096;-76
2023/01/13 03:56:32;;;;;;;26.10;4.30;;;7.40;99.90;;;;;;5034407;28;20033;-77
2023/01/13 03:59:03;;;;;;;21.98;5.57;;;7.40;99.90;;;;;;5034546;28;20040;-78
2023/01/13 04:01:49;;;;;;;19.27;4.13;;;7.40;99.90;;;;;;5034473;28;20088;-77
2023/01/13 04:04:24;;;;;;;29.13;5.53;;;7.40;99.90;;;;;;5034435;28;20041;-77
2023/01/13 04:07:02;;;;;;;38.95;5.13;;;7.50;99.90;;;;;;5034165;28;20493;-77
2023/01/13 04:09:27;;;;;;;;;;;7.40;99.90;;;;;;5034723;28;20041;-76
2023/01/13 04:12:16;;;;;;;24.13;4.88;;;7.40;99.90;;;;;;5034167;28;19928;-78
2023/01/13 04:14:43;;;;;;;26.17;4.50;;;7.40;99.90;;;;;;5034268;28;20084;-77
2023/01/13 04:17:09;;;;;;;29.63;5.28;;;7.30;99.90;;;;;;5034099;28;20461;-76
2023/01/13 04:19:35;;;;;;;26.13;4.63;;;7.30;99.90;;;;;;5034118;28;20069;-77
2023/01/13 04:22:00;;;;;;;22.60;4.60;;;7.30;99.90;;;;;;5033864;28;20049;-77
2023/01/13 04:24:26;;;;;;;25.80;4.13;;;7.30;99.90;;;;;;5034289;28;20049;-77
2023/01/13 04:26:51;;;;;;;18.95;3.88;;;7.30;99.90;;;;;;5034142;28;20536;-77
2023/01/13 04:29:17;;;;;;;27.15;5.50;;;7.30;99.90;;;;;;5034164;28;20041;-76
2023/01/13 04:31:43;;;;;;;24.98;4.97;;;7.30;99.90;;;;;;5033448;28;20045;-78
2023/01/13 04:34:11;;;;;;;24.83;3.90;;;7.30;99.90;;;;;;5033977;28;20536;-76
2023/01/13 04:36:37;;;;;;;26.60;5.20;;;7.30;99.90;;;;;;5033508;28;20053;-77
2023/01/13 04:39:03;;;;;;;29.48;5.32;;;7.30;99.90;;;;;;5033774;28;20057;-77
2023/01/13 04:41:56;;;;;;;32.60;4.45;;;7.30;99.90;;;;;;5033784;28;20034;-76
2023/01/13 04:44:14;;;;;;;20.98;4.20;;;7.30;99.90;;;;;;5033399;28;20045;-76
2023/01/13 04:46:39;;;;;;;37.45;5.53;;;7.30;99.90;;;;;;5033730;28;20044;-78
2023/01/13 04:49:05;;;;;;;23.80;4.28;;;7.40;99.90;;;;;;5033820;28;20492;-77
2023/01/13 04:51:30;;;;;;;21.33;3.85;;;7.40;99.90;;;;;;5033809;28;20104;-77
2023/01/13 04:53:56;;;;;;;25.95;4.90;;;7.40;99.90;;;;;;5033801;28;20037;-77
2023/01/13 04:56:22;;;;;;;23.33;4.60;;;7.40;99.90;;;;;;5033981;28;20049;-77
2023/01/13 04:58:47;;;;;;;30.83;5.80;;;7.30;99.90;;;;;;5033621;28;20036;-76
2023/01/13 05:01:13;;;;;;;19.90;4.50;;;7.30;99.90;;;;;;5033762;28;20033;-76
2023/01/13 05:03:38;;;;;;;24.88;5.38;;;7.30;99.90;;;;;;5033716;28;20081;-76
2023/01/13 05:06:04;;;;;;;28.75;4.85;;;7.30;99.90;;;;;;5033584;28;20041;-77
2023/01/13 05:08:30;;;;;;;22.63;5.32;;;7.30;99.90;;;;;;5033467;28;20047;-77
2023/01/13 05:10:59;;;;;;;22.40;4.75;;;7.30;99.90;;;;;;5015847;28;20079;-77
2023/01/13 05:18:55;;;;;;;23.10;4.57;;;7.30;99.90;;;;;;5033382;28;20037;-76
2023/01/13 05:26:48;;;;;;;18.77;3.80;;;7.30;99.90;;;;;;5033405;28;20120;-77
2023/01/13 05:29:14;;;;;;;23.52;4.30;;;8.30;99.90;;;;;;5033354;28;20537;-77
2023/01/13 05:31:40;;;;;;;20.25;3.90;;;7.30;99.90;;;;;;5032923;28;20048;-76
2023/01/13 05:34:05;;;;;;;23.85;4.78;;;7.20;99.90;;;;;;5033397;28;20048;-76
2023/01/13 05:36:31;;;;;;;28.48;5.05;;;7.20;99.90;;;;;;5033052;28;20509;-76
2023/01/13 05:38:56;;;;;;;24.65;4.13;;;7.20;99.90;;;;;;5033321;28;20096;-77
2023/01/13 05:44:06;;;;;;;24.20;4.20;;;7.30;99.90;;;;;;5035410;28;20477;-77
2023/01/13 05:46:32;;;;;;;19.60;3.72;;;7.30;99.90;;;;;;5036975;28;20049;-76
2023/01/13 05:48:58;;;;;;;25.88;3.85;;;7.30;99.90;;;;;;5036872;28;20045;-77
2023/01/13 05:51:25;;;;;;;22.98;3.97;;;7.30;99.90;;;;;;5036668;28;20071;-77
2023/01/13 05:53:50;;;;;;;19.15;3.92;;;7.30;99.90;;;;;;5019008;28;20124;-77
2023/01/13 05:56:16;;;;;;;27.00;3.97;;;7.30;99.90;;;;;;5036727;28;20529;-82
2023/01/13 05:58:42;;;;;;;20.23;4.93;;;7.30;99.90;;;;;;5036722;28;20052;-77
2023/01/13 06:01:08;;;;;;;20.55;4.20;;;7.30;99.90;;;;;;5036420;28;20034;-77
2023/01/13 06:03:34;;;;;;;14.88;3.38;;;7.30;99.90;;;;;;5036628;28;20099;-80
2023/01/13 06:06:02;;;;;;;16.80;3.63;;;7.30;99.90;;;;;;5036663;28;20042;-77
2023/01/13 06:08:29;;;;;;;14.57;3.30;;;7.30;99.90;;;;;;5036538;28;20045;-78
2023/01/13 06:10:55;;;;;;;17.45;3.83;;;7.30;99.90;;;;;;5036515;28;20079;-77
2023/01/13 06:13:21;;;;;;;20.80;3.97;;;7.30;99.90;;;;;;5036349;28;20143;-77
2023/01/13 06:15:46;;;;;;;15.98;3.67;;;7.30;99.90;;;;;;5036232;28;20593;-76
2023/01/13 06:18:12;;;;;;;17.38;3.17;;;7.30;99.90;;;;;;5036522;28;20061;-77
2023/01/13 06:20:38;;;;;;;21.60;3.90;;;7.30;99.90;;;;;;5036490;28;20040;-78
2023/01/13 06:23:07;;;;;;;15.82;3.90;;;7.30;99.90;;;;;;5036519;28;20041;-78
2023/01/13 06:25:57;;;;;;;15.00;3.03;;;7.30;99.90;;;;;;5036105;28;20116;-78
2023/01/13 06:28:23;;;;;;;12.48;3.30;;;7.30;99.90;;;;;;5036307;28;20061;-77
2023/01/13 06:30:53;;;;;;;9.43;2.67;;;7.40;99.90;;;;;;5036072;28;20049;-77
2023/01/13 06:33:27;;;;;;;16.90;2.92;;;7.40;99.90;;;;;;5036095;28;20038;-77
2023/01/13 06:35:58;;;;;;;10.82;2.70;;;7.40;99.90;;;;;;5035933;28;20033;-76
2023/01/13 06:38:26;;;;;;;9.68;2.80;;;7.50;99.90;;;;;;5035972;28;20049;-78
2023/01/13 06:40:52;;;;;;;15.02;2.90;;;7.50;99.90;;;;;;5035939;28;20077;-77
2023/01/13 06:43:18;;;;;;;12.68;3.10;;;7.50;99.90;;;;;;5035915;28;20041;-77
2023/01/13 06:46:02;;;;;;;15.70;2.70;;;7.50;99.90;;;;;;5035924;28;20096;-79
2023/01/13 06:48:32;;;;;;;15.90;3.47;;;7.40;99.90;;;;;;5035872;28;20048;-77
2023/01/13 06:50:58;;;;;;;12.50;2.67;;;7.50;99.90;;;;;;5035728;28;20045;-77
2023/01/13 06:53:24;;;;;;;10.07;2.70;;;7.50;99.90;;;;;;5017364;28;20133;-78
2023/01/13 06:55:49;;;;;;;12.20;2.35;;;7.50;99.90;;;;;;5017909;28;20049;-76
2023/01/13 06:58:15;;;;;;;11.40;2.58;;;7.50;99.90;;;;;;5035697;28;20068;-76
2023/01/13 07:00:41;;;;;;;13.18;2.60;;;7.50;99.90;;;;;;5035478;28;20037;-76
2023/01/13 07:03:12;;;;;;;10.05;2.75;;;7.50;99.90;;;;;;5017760;28;20516;-77
2023/01/13 07:05:39;;;;;;;10.02;2.25;;;7.50;99.90;;;;;;5035909;28;20049;-78
2023/01/13 07:08:05;;;;;;;8.52;2.90;;;7.50;99.90;;;;;;5035670;28;20057;-80
2023/01/13 07:10:31;;;;;;;15.38;2.70;;;7.50;99.90;;;;;;5036238;28;20045;-77
2023/01/13 07:15:58;;;;;;;18.27;2.88;;;7.50;99.90;;;;;;5035585;28;20041;-77
2023/01/13 07:18:26;;;;;;;13.07;2.25;;;7.50;99.90;;;;;;5035603;28;20041;-76
2023/01/13 07:20:56;;;;;;;17.45;2.70;;;7.50;99.90;;;;;;5035203;28;20067;-77
2023/01/13 07:23:23;;;;;;;20.17;3.38;;;7.50;99.90;;;;;;5035142;28;20045;-77
2023/01/13 07:25:49;;;;;;;12.20;2.50;;;7.50;99.90;;;;;;5034901;28;20557;-77
2023/01/13 07:28:15;;;;;;;17.05;3.45;;;7.70;99.90;;;;;;5035067;28;20099;-77
2023/01/13 07:30:40;;;;;;;17.35;2.88;;;7.50;99.90;;;;;;5034909;28;20095;-77
2023/01/13 07:33:06;;;;;;;10.73;2.80;;;7.50;99.90;;;;;;5034573;28;20037;-77
2023/01/13 07:35:32;;;;;;;14.73;2.63;;;7.40;99.90;;;;;;5035126;28;20041;-78
2023/01/13 07:37:57;;;;;;;10.48;2.78;;;7.50;99.90;;;;;;5034702;28;20132;-78
2023/01/13 07:40:23;;;;;;;10.25;2.67;;;7.50;99.90;;;;;;5034839;28;20397;-76
2023/01/13 07:45:32;;;;;;;12.32;2.70;;;7.50;99.90;;;;;;5034771;28;20053;-77
2023/01/13 07:47:58;;;;;;;9.70;2.75;;;7.50;99.90;;;;;;5035029;28;20041;-76
2023/01/13 07:50:23;;;;;;;11.82;2.55;;;7.50;99.90;;;;;;5034637;28;20466;-77
2023/01/13 07:52:49;;;;;;;12.18;3.28;;;8.20;99.90;;;;;;5034436;28;20045;-77
2023/01/13 07:55:15;;;;;;;13.83;3.13;;;8.20;99.90;;;;;;5034282;28;20092;-79
2023/01/13 07:57:41;;;;;;;13.98;3.17;;;7.50;99.90;;;;;;5034464;28;20037;-77
2023/01/13 08:00:08;;;;;;;15.02;3.22;;;7.60;99.90;;;;;;5034353;28;20056;-76
2023/01/13 08:02:33;;;;;;;14.13;2.88;;;7.60;99.90;;;;;;5034260;28;20041;-76
2023/01/13 08:04:59;;;;;;;12.40;2.90;;;8.30;99.90;;;;;;5034057;28;20085;-77
2023/01/13 08:07:24;;;;;;;12.68;3.58;;;7.80;99.90;;;;;;5033758;28;20470;-77
2023/01/13 08:09:50;;;;;;;15.95;2.92;;;7.50;99.90;;;;;;5034175;28;20130;-76
2023/01/13 08:15:00;;;;;;;19.88;3.13;;;7.70;99.90;;;;;;5034310;28;20096;-81
2023/01/13 08:17:26;;;;;;;15.48;3.15;;;8.30;99.90;;;;;;5034143;28;20089;-81
2023/01/13 08:19:51;;;;;;;14.40;2.83;;;7.50;99.90;;;;;;5016721;28;20049;-79
2023/01/13 08:22:17;;;;;;;18.70;3.10;;;7.40;99.90;;;;;;5016979;28;20052;-78
2023/01/13 08:24:42;;;;;;;16.13;3.10;;;7.40;99.90;;;;;;5032375;28;20085;-81
2023/01/13 08:27:08;;;;;;;16.48;3.05;;;7.90;99.90;;;;;;5015135;28;20042;-82
2023/01/13 08:29:33;;;;;;;12.73;2.83;;;7.40;99.90;;;;;;5016178;28;20417;-78
2023/01/13 08:31:59;;;;;;;20.88;3.47;;;7.40;99.90;;;;;;5034010;28;20041;-77
2023/01/13 08:34:25;;;;;;;12.65;3.05;;;7.70;99.90;;;;;;5033339;28;20466;-77
2023/01/13 08:36:50;;;;;;;12.55;2.75;;;7.40;99.90;;;;;;5033522;28;20049;-79
2023/01/13 08:39:17;;;;;;;12.35;2.88;;;7.40;99.90;;;;;;5033616;28;20054;-77
2023/01/13 08:41:55;;;;;;;13.60;2.45;;;7.40;99.90;;;;;;5033617;28;20405;-79
2023/01/13 08:44:25;;;;;;;15.50;3.20;;;7.40;99.90;;;;;;5033747;28;20088;-81
2023/01/13 08:46:52;;;;;;;15.88;3.60;;;7.30;99.90;;;;;;5033591;28;20041;-78
2023/01/13 08:49:18;;;;;;;10.10;2.83;;;7.90;99.90;;;;;;5015558;28;20490;-78
2023/01/13 08:51:44;;;;;;;16.05;2.95;;;8.00;99.90;;;;;;5033629;28;20053;-78
2023/01/13 08:54:10;;;;;;;23.58;3.63;;;7.20;99.90;;;;;;5033748;28;20470;-80
2023/01/13 08:56:36;;;;;;;12.48;3.28;;;7.20;99.90;;;;;;5033119;28;20136;-77
2023/01/13 08:59:02;;;;;;;14.77;2.97;;;7.90;99.90;;;;;;5033981;28;20496;-76
2023/01/13 09:01:27;;;;;;;19.98;3.58;;;7.20;99.90;;;;;;5034160;28;20041;-78
2023/01/13 09:03:53;;;;;;;11.57;2.92;;;7.20;99.90;;;;;;5033360;28;20041;-79
2023/01/13 09:06:19;;;;;;;12.65;3.17;;;7.70;99.90;;;;;;5033173;28;20056;-80
2023/01/13 09:08:45;;;;;;;16.52;3.30;;;7.20;99.90;;;;;;5034151;28;20107;-80
2023/01/13 09:14:03;;;;;;;14.80;3.13;;;7.20;99.90;;;;;;5033574;28;20132;-83
2023/01/13 09:16:29;;;;;;;15.80;3.08;;;7.20;99.90;;;;;;5033359;28;20149;-78
2023/01/13 09:18:54;;;;;;;17.52;3.05;;;7.20;99.90;;;;;;5037195;28;20165;-78
2023/01/13 09:21:21;;;;;;;13.65;3.20;;;7.60;99.90;;;;;;5037116;28;20057;-81
2023/01/13 09:23:47;;;;;;;15.05;2.92;;;8.10;99.90;;;;;;5037001;28;20041;-82
2023/01/13 09:26:19;;;;;;;14.73;3.13;;;7.30;99.90;;;;;;5020782;28;20445;-78
2023/01/13 09:28:44;;;;;;;23.50;3.35;;;7.30;99.90;;;;;;5020035;28;20072;-79
2023/01/13 09:31:10;;;;;;;16.10;2.97;;;7.30;99.90;;;;;;5036867;28;20037;-83
2023/01/13 09:36:20;;;;;;;19.35;3.47;;;7.40;99.90;;;;;;5036892;28;20413;-79
2023/01/13 09:38:47;;;;;;;12.27;3.28;;;7.40;99.90;;;;;;5037392;28;20061;-78
2023/01/13 09:44:31;;;;;;;14.27;2.88;;;7.50;99.90;;;;;;5036486;28;20557;-77
2023/01/13 09:47:02;;;;;;;15.52;3.17;;;7.40;99.90;;;;;;5037118;28;20401;-82
2023/01/13 09:49:37;;;;;;;14.73;3.42;;;7.50;99.90;;;;;;5036688;28;20041;-80
2023/01/13 09:52:09;;;;;;;15.02;3.17;;;7.80;99.90;;;;;;5036360;28;20060;-79
2023/01/13 09:54:40;;;;;;;15.63;3.38;;;7.50;99.90;;;;;;5036378;28;20124;-78
2023/01/13 09:57:13;;;;;;;15.23;3.33;;;7.60;99.90;;;;;;5036477;28;20513;-78
2023/01/13 09:59:39;;;;;;;14.68;3.05;;;7.60;99.90;;;;;;5036407;28;20088;-78
2023/01/13 10:02:38;;;;;;;16.83;3.20;;;7.70;99.90;;;;;;5036367;28;20045;-80
2023/01/13 10:05:16;;;;;;;;;;;7.70;99.90;;;;;;5037011;28;20052;-80
2023/01/13 10:07:55;;;;;;;15.70;3.05;;;7.80;99.90;;;;;;5035956;28;19928;-78
2023/01/13 10:10:37;;;;;;;18.55;3.33;;;8.60;99.90;;;;;;5036389;28;20045;-80
2023/01/13 10:13:14;;;;;;;14.05;2.83;;;7.90;99.90;;;;;;5036348;28;20038;-81
2023/01/13 10:15:51;;;;;;;11.43;2.85;;;7.90;99.90;;;;;;5036261;28;20095;-80
2023/01/13 10:18:39;;;;;;;20.38;3.80;;;8.00;99.90;;;;;;5036135;28;20053;-80
2023/01/13 10:21:24;;;;;;;21.73;3.72;;;8.00;99.90;;;;;;4998885;28;20128;-79
2023/01/13 10:24:08;;;;;;;12.43;2.70;;;7.90;99.90;;;;;;5036042;28;20050;-77
2023/01/13 10:26:51;;;;;;;13.98;3.30;;;7.90;99.90;;;;;;5035581;28;20466;-80
2023/01/13 10:29:26;;;;;;;15.07;2.90;;;7.90;99.90;;;;;;5030779;28;20507;-79
2023/01/13 10:31:53;;;;;;;13.18;3.20;;;8.00;99.90;;;;;;5035714;28;20406;-78
2023/01/13 10:34:20;;;;;;;18.70;4.15;;;7.90;99.90;;;;;;5035876;28;20096;-80
2023/01/13 10:37:06;;;;;;;16.73;3.15;;;8.00;99.90;;;;;;5035514;28;20053;-81
2023/01/13 10:39:43;;;;;;;17.80;3.92;;;7.80;99.90;;;;;;5035807;28;20053;-81
2023/01/13 10:42:18;;;;;;;13.20;3.40;;;7.80;99.90;;;;;;5035883;28;20044;-78
2023/01/13 10:44:58;;;;;;;18.27;3.15;;;8.40;99.90;;;;;;5035687;28;20042;-78
2023/01/13 10:47:34;;;;;;;12.50;3.50;;;7.70;99.90;;;;;;5035166;28;20444;-79
2023/01/13 10:50:11;;;;;;;13.35;3.22;;;7.70;99.90;;;;;;5035416;28;20041;-78
2023/01/13 10:52:41;;;;;;;;;;;7.80;99.90;;;;;;5035993;28;20128;-80
2023/01/13 10:55:27;;;;;;;18.80;3.13;;;8.30;99.90;;;;;;5035444;28;19921;-78
2023/01/13 10:57:53;;;;;;;11.27;2.97;;;7.80;99.90;;;;;;5035178;28;20128;-81
2023/01/13 11:00:31;;;;;;;19.30;3.25;;;7.90;99.90;;;;;;5035249;28;20128;-79
2023/01/13 11:03:08;;;;;;;;;;;7.80;99.90;;;;;;5035841;28;20056;-78
2023/01/13 11:05:35;;;;;;;15.57;3.35;;;7.80;99.90;;;;;;5017582;28;20007;-81
2023/01/13 11:08:01;;;;;;;15.98;3.65;;;7.80;99.90;;;;;;5034768;28;20515;-79
2023/01/13 11:10:30;;;;;;;15.70;3.15;;;8.60;99.90;;;;;;5017532;28;20045;-80
2023/01/13 11:13:24;;;;;;;19.70;3.83;;;7.90;99.90;;;;;;5035032;28;20038;-80
2023/01/13 11:16:09;;;;;;;13.52;2.97;;;7.80;99.90;;;;;;5027458;28;20068;-77
2023/01/13 11:19:12;;;;;;;12.95;2.90;;;7.80;99.90;;;;;;5017562;28;20056;-76
2023/01/13 11:21:49;;;;;;;23.45;4.65;;;7.90;99.90;;;;;;5034483;28;20525;-78
2023/01/13 11:24:22;;;;;;;13.75;3.53;;;7.80;99.90;;;;;;5034785;28;20505;-79
2023/01/13 11:27:20;;;;;;;13.65;3.22;;;7.90;99.90;;;;;;5034877;28;20062;-80
2023/01/13 11:29:56;;;;;;;19.10;3.33;;;7.90;99.90;;;;;;5028533;28;20061;-84
2023/01/13 11:32:23;;;;;;;19.15;3.35;;;7.90;99.90;;;;;;5000858;28;20379;-81
2023/01/13 11:34:54;;;;;;;16.90;4.05;;;7.90;99.90;;;;;;5017142;28;20064;-78
2023/01/13 11:37:39;;;;;;;20.27;3.97;;;7.90;99.90;;;;;;5035015;28;20132;-78
2023/01/13 11:40:33;;;;;;;22.58;3.30;;;7.90;99.90;;;;;;5034965;28;20046;-79
2023/01/13 11:43:10;;;;;;;17.13;3.47;;;7.90;99.90;;;;;;5017460;28;20037;-79
2023/01/13 11:45:40;;;;;;;15.68;3.10;;;7.80;99.90;;;;;;5034651;28;20045;-79
2023/01/13 11:48:14;;;;;;;15.27;3.10;;;7.90;99.90;;;;;;5034641;28;20613;-80
2023/01/13 11:50:49;;;;;;;19.45;2.92;;;8.00;99.90;;;;;;5034058;28;20053;-78
2023/01/13 11:53:26;;;;;;;19.08;2.63;;;7.90;99.90;;;;;;5034479;28;20056;-80
2023/01/13 11:56:09;;;;;;;17.33;3.70;;;8.00;99.90;;;;;;5034470;28;20507;-80
2023/01/13 11:59:03;;;;;;;19.33;3.17;;;8.00;99.90;;;;;;5001176;28;20053;-77
2023/01/13 12:02:03;;;;;;;14.02;3.38;;;8.00;99.90;;;;;;5034288;28;20122;-80
2023/01/13 12:04:39;;;;;;;12.45;2.83;;;8.00;99.90;;;;;;5016487;28;20139;-78
2023/01/13 12:07:19;;;;;;;12.63;3.13;;;8.00;99.90;;;;;;5016019;28;20053;-77
2023/01/13 12:09:56;;;;;;;20.33;3.80;;;7.90;99.90;;;;;;5034399;28;20111;-77
2023/01/13 12:12:46;;;;;;;15.15;3.17;;;7.90;99.90;;;;;;5014341;28;20046;-79
2023/01/13 12:15:17;;;;;;;18.48;3.10;;;7.90;99.90;;;;;;5014185;28;20065;-76
2023/01/13 12:18:20;;;;;;;16.20;3.25;;;7.90;99.90;;;;;;5013799;28;20147;-75
2023/01/13 12:21:24;;;;;;;22.15;3.47;;;7.90;99.90;;;;;;5014241;28;20056;-79
2023/01/13 12:23:52;;;;;;;15.50;3.10;;;8.00;99.90;;;;;;4991365;28;20097;-77
2023/01/13 12:26:18;;;;;;;22.75;3.75;;;8.00;99.90;;;;;;5014153;28;20064;-78
2023/01/13 12:28:59;;;;;;;16.95;3.10;;;8.00;99.90;;;;;;5014032;28;20479;-79
2023/01/13 12:31:26;;;;;;;8.73;2.70;;;8.00;99.90;;;;;;5002958;28;20442;-78
2023/01/13 12:33:55;;;;;;;;;;;8.00;99.90;;;;;;5033309;28;20046;-79
2023/01/13 12:36:39;;;;;;;13.30;2.55;;;8.10;99.90;;;;;;5033696;28;19967;-76
2023/01/13 12:39:26;;;;;;;19.88;3.22;;;8.10;99.90;;;;;;5033699;28;20049;-79
2023/01/13 12:44:36;;;;;;;16.30;3.10;;;8.70;99.90;;;;;;5033480;28;20045;-79
2023/01/13 12:47:02;;;;;;;20.23;3.42;;;8.10;99.90;;;;;;5016530;28;20041;-79
2023/01/13 12:49:32;;;;;;;10.82;3.20;;;8.70;99.90;;;;;;4999819;28;20045;-78
2023/01/13 12:52:12;;;;;;;16.20;3.53;;;8.50;99.90;;;;;;5033092;28;20053;-78
2023/01/13 12:54:38;;;;;;;20.25;3.47;;;8.00;99.90;;;;;;5033739;28;20081;-78
2023/01/13 12:57:27;;;;;;;17.65;3.38;;;8.00;99.90;;;;;;5033796;28;20081;-78
2023/01/13 12:59:58;;;;;;;13.73;3.00;;;8.00;99.90;;;;;;5034008;28;20055;-79
2023/01/13 13:02:32;;;;;;;17.13;3.42;;;7.90;99.90;;;;;;5033739;28;20041;-78
2023/01/13 13:05:14;;;;;;;13.25;2.42;;;7.90;99.90;;;;;;5033613;28;20437;-79
2023/01/13 13:07:51;;;;;;;15.23;3.50;;;7.90;99.90;;;;;;5034077;28;20367;-80
2023/01/13 13:10:35;;;;;;;21.48;3.58;;;7.70;99.90;;;;;;5017094;28;20053;-80
2023/01/13 13:13:16;;;;;;;22.08;3.85;;;7.90;99.90;;;;;;5033758;28;20049;-78
2023/01/13 13:15:44;;;;;;;10.52;2.85;;;8.20;99.90;;;;;;5033877;28;20122;-79
2023/01/13 13:18:16;;;;;;;11.30;2.85;;;7.90;99.90;;;;;;5033924;28;20034;-79
2023/01/13 13:21:04;;;;;;;14.23;2.85;;;8.70;99.90;;;;;;5033974;28;20054;-78
2023/01/13 13:23:36;;;;;;;;;;;7.80;99.90;;;;;;5033994;28;20045;-79
2023/01/13 13:26:23;;;;;;;13.57;3.05;;;7.80;99.90;;;;;;5033128;28;20309;-80
2023/01/13 13:29:21;;;;;;;12.45;2.53;;;7.80;99.90;;;;;;5033773;28;20077;-78
2023/01/13 13:31:59;;;;;;;12.00;2.85;;;7.80;99.90;;;;;;5033240;28;20091;-78
2023/01/13 13:34:41;;;;;;;13.65;3.22;;;7.80;99.90;;;;;;5033297;28;20136;-79
2023/01/13 13:46:45;;;;;;;12.15;2.50;;;7.80;99.90;;;;;;5033123;28;20140;-79
2023/01/13 13:48:53;;;;;;;7.68;2.17;;;7.90;99.90;;;;;;5033255;28;20049;-79
2023/01/13 13:51:35;;;;;;;12.00;2.78;;;8.00;99.90;;;;;;5015874;28;20046;-79
2023/01/13 13:54:02;;;;;;;8.68;2.20;;;8.00;99.90;;;;;;5033021;28;20038;-80
2023/01/13 13:56:39;;;;;;;14.65;2.63;;;8.00;99.90;;;;;;5033327;28;20052;-78
2023/01/13 13:59:09;;;;;;;13.25;2.83;;;8.10;99.90;;;;;;5033095;28;20096;-79
2023/01/13 14:01:38;;;;;;;16.63;2.92;;;8.00;99.90;;;;;;5033062;28;20050;-78
2023/01/13 14:04:06;;;;;;;9.57;3.10;;;8.20;99.90;;;;;;5033845;28;20132;-80
2023/01/13 14:06:32;;;;;;;14.98;2.85;;;7.90;99.90;;;;;;5036548;28;20065;-79
2023/01/13 14:08:58;;;;;;;9.27;2.22;;;8.30;99.90;;;;;;5036449;28;20052;-80